sensor_id;sensor_type;location;lat;lon;timestamp;P1;durP1;ratioP1;P2;durP2;ratioP2
3922;SDS011;1976;51.694;6.256;2022-08-02T00:02:19;10.60;;;2.17;;
3922;SDS011;1976;51.694;6.256;2022-08-02T00:04:45;5.80;;;2.60;;
3922;SDS011;1976;51.694;6.256;2022-08-02T00:07:11;4.57;;;2.30;;
3922;SDS011;1976;51.694;6.256;2022-08-02T00:09:38;6.70;;;2.50;;
3922;SDS011;1976;51.694;6.256;2022-08-02T00:12:04;6.83;;;2.30;;
3922;SDS011;1976;51.694;6.256;2022-08-02T00:14:30;2.67;;;2.00;;
3922;SDS011;1976;51.694;6.256;2022-08-02T00:16:56;4.83;;;2.50;;
3922;SDS011;1976;51.694;6.256;2022-08-02T00:19:22;5.13;;;1.93;;
3922;SDS011;1976;51.694;6.256;2022-08-02T00:21:48;7.33;;;2.80;;
3922;SDS011;1976;51.694;6.256;2022-08-02T00:24:14;2.70;;;1.90;;
3922;SDS011;1976;51.694;6.256;2022-08-02T00:26:39;2.30;;;2.10;;
3922;SDS011;1976;51.694;6.256;2022-08-02T00:29:05;3.53;;;2.37;;
3922;SDS011;1976;51.694;6.256;2022-08-02T00:31:31;5.60;;;2.47;;
3922;SDS011;1976;51.694;6.256;2022-08-02T00:33:56;4.93;;;2.27;;
3922;SDS011;1976;51.694;6.256;2022-08-02T00:36:22;4.83;;;2.50;;
3922;SDS011;1976;51.694;6.256;2022-08-02T00:38:48;4.73;;;2.10;;
3922;SDS011;1976;51.694;6.256;2022-08-02T00:41:16;11.17;;;2.20;;
3922;SDS011;1976;51.694;6.256;2022-08-02T00:43:43;6.93;;;2.10;;
3922;SDS011;1976;51.694;6.256;2022-08-02T00:46:10;18.13;;;3.53;;
3922;SDS011;1976;51.694;6.256;2022-08-02T00:48:36;5.10;;;2.20;;
3922;SDS011;1976;51.694;6.256;2022-08-02T00:51:02;4.23;;;2.20;;
3922;SDS011;1976;51.694;6.256;2022-08-02T00:53:28;5.17;;;2.60;;
3922;SDS011;1976;51.694;6.256;2022-08-02T00:55:54;4.00;;;2.40;;
3922;SDS011;1976;51.694;6.256;2022-08-02T00:58:20;6.47;;;2.70;;
3922;SDS011;1976;51.694;6.256;2022-08-02T01:00:46;5.03;;;2.70;;
3922;SDS011;1976;51.694;6.256;2022-08-02T01:03:11;11.77;;;2.80;;
3922;SDS011;1976;51.694;6.256;2022-08-02T01:05:37;9.60;;;2.20;;
3922;SDS011;1976;51.694;6.256;2022-08-02T01:08:03;8.07;;;2.30;;
3922;SDS011;1976;51.694;6.256;2022-08-02T01:10:29;5.77;;;2.77;;
3922;SDS011;1976;51.694;6.256;2022-08-02T01:12:54;2.17;;;1.97;;
3922;SDS011;1976;51.694;6.256;2022-08-02T01:15:20;2.43;;;1.90;;
3922;SDS011;1976;51.694;6.256;2022-08-02T01:18:05;2.57;;;1.90;;
3922;SDS011;1976;51.694;6.256;2022-08-02T01:26:38;10.87;;;2.43;;
3922;SDS011;1976;51.694;6.256;2022-08-02T01:31:54;7.13;;;2.23;;
3922;SDS011;1976;51.694;6.256;2022-08-02T01:37:18;5.33;;;2.50;;
3922;SDS011;1976;51.694;6.256;2022-08-02T01:39:46;3.70;;;2.33;;
3922;SDS011;1976;51.694;6.256;2022-08-02T01:42:15;3.87;;;2.43;;
3922;SDS011;1976;51.694;6.256;2022-08-02T01:44:43;5.97;;;2.60;;
3922;SDS011;1976;51.694;6.256;2022-08-02T01:47:13;32.63;;;2.90;;
3922;SDS011;1976;51.694;6.256;2022-08-02T01:49:42;9.13;;;3.77;;
3922;SDS011;1976;51.694;6.256;2022-08-02T01:52:11;4.77;;;2.70;;
3922;SDS011;1976;51.694;6.256;2022-08-02T01:54:55;5.07;;;3.20;;
3922;SDS011;1976;51.694;6.256;2022-08-02T01:57:30;7.13;;;2.30;;
3922;SDS011;1976;51.694;6.256;2022-08-02T02:00:01;9.70;;;2.50;;
3922;SDS011;1976;51.694;6.256;2022-08-02T02:02:30;9.00;;;3.10;;
3922;SDS011;1976;51.694;6.256;2022-08-02T02:04:57;20.10;;;3.70;;
3922;SDS011;1976;51.694;6.256;2022-08-02T02:07:23;10.67;;;3.37;;
3922;SDS011;1976;51.694;6.256;2022-08-02T02:09:50;9.00;;;3.40;;
3922;SDS011;1976;51.694;6.256;2022-08-02T02:12:18;4.70;;;2.60;;
3922;SDS011;1976;51.694;6.256;2022-08-02T02:14:46;4.60;;;2.53;;
3922;SDS011;1976;51.694;6.256;2022-08-02T02:17:13;6.80;;;3.13;;
3922;SDS011;1976;51.694;6.256;2022-08-02T02:19:40;4.47;;;3.23;;
3922;SDS011;1976;51.694;6.256;2022-08-02T02:22:07;13.70;;;2.80;;
3922;SDS011;1976;51.694;6.256;2022-08-02T02:24:33;8.27;;;3.23;;
3922;SDS011;1976;51.694;6.256;2022-08-02T02:26:59;6.90;;;3.40;;
3922;SDS011;1976;51.694;6.256;2022-08-02T02:29:27;4.97;;;3.20;;
3922;SDS011;1976;51.694;6.256;2022-08-02T02:31:55;6.10;;;2.87;;
3922;SDS011;1976;51.694;6.256;2022-08-02T02:34:25;10.73;;;2.80;;
3922;SDS011;1976;51.694;6.256;2022-08-02T02:37:16;10.27;;;2.63;;
3922;SDS011;1976;51.694;6.256;2022-08-02T02:39:45;2.70;;;2.13;;
3922;SDS011;1976;51.694;6.256;2022-08-02T02:42:15;4.57;;;2.80;;
3922;SDS011;1976;51.694;6.256;2022-08-02T02:44:43;9.40;;;2.50;;
3922;SDS011;1976;51.694;6.256;2022-08-02T02:47:11;13.70;;;3.03;;
3922;SDS011;1976;51.694;6.256;2022-08-02T02:49:39;7.50;;;2.90;;
3922;SDS011;1976;51.694;6.256;2022-08-02T02:52:08;10.80;;;3.70;;
3922;SDS011;1976;51.694;6.256;2022-08-02T02:54:35;3.27;;;2.77;;
3922;SDS011;1976;51.694;6.256;2022-08-02T02:57:03;6.50;;;2.63;;
3922;SDS011;1976;51.694;6.256;2022-08-02T02:59:31;3.03;;;2.30;;
3922;SDS011;1976;51.694;6.256;2022-08-02T03:01:58;4.70;;;2.57;;
3922;SDS011;1976;51.694;6.256;2022-08-02T03:04:26;5.67;;;2.50;;
3922;SDS011;1976;51.694;6.256;2022-08-02T03:06:52;4.70;;;2.83;;
3922;SDS011;1976;51.694;6.256;2022-08-02T03:09:18;27.43;;;3.37;;
3922;SDS011;1976;51.694;6.256;2022-08-02T03:11:44;4.50;;;2.53;;
3922;SDS011;1976;51.694;6.256;2022-08-02T03:14:11;2.90;;;2.10;;
3922;SDS011;1976;51.694;6.256;2022-08-02T03:16:43;6.27;;;2.77;;
3922;SDS011;1976;51.694;6.256;2022-08-02T03:19:11;8.87;;;3.17;;
3922;SDS011;1976;51.694;6.256;2022-08-02T03:21:37;9.17;;;3.60;;
3922;SDS011;1976;51.694;6.256;2022-08-02T03:24:03;4.70;;;2.63;;
3922;SDS011;1976;51.694;6.256;2022-08-02T03:26:29;3.97;;;2.50;;
3922;SDS011;1976;51.694;6.256;2022-08-02T03:28:55;9.03;;;3.17;;
3922;SDS011;1976;51.694;6.256;2022-08-02T03:31:21;5.00;;;2.83;;
3922;SDS011;1976;51.694;6.256;2022-08-02T03:33:46;3.53;;;2.50;;
3922;SDS011;1976;51.694;6.256;2022-08-02T03:36:14;12.60;;;3.40;;
3922;SDS011;1976;51.694;6.256;2022-08-02T03:38:41;9.07;;;3.57;;
3922;SDS011;1976;51.694;6.256;2022-08-02T03:41:08;10.60;;;3.40;;
3922;SDS011;1976;51.694;6.256;2022-08-02T03:43:37;6.00;;;2.70;;
3922;SDS011;1976;51.694;6.256;2022-08-02T03:46:04;7.00;;;2.87;;
3922;SDS011;1976;51.694;6.256;2022-08-02T03:48:32;6.37;;;2.97;;
3922;SDS011;1976;51.694;6.256;2022-08-02T03:50:58;9.80;;;2.90;;
3922;SDS011;1976;51.694;6.256;2022-08-02T03:53:24;3.70;;;2.20;;
3922;SDS011;1976;51.694;6.256;2022-08-02T03:55:50;5.63;;;3.40;;
3922;SDS011;1976;51.694;6.256;2022-08-02T03:58:21;9.60;;;3.93;;
3922;SDS011;1976;51.694;6.256;2022-08-02T04:00:48;4.70;;;3.20;;
3922;SDS011;1976;51.694;6.256;2022-08-02T04:03:15;8.63;;;3.57;;
3922;SDS011;1976;51.694;6.256;2022-08-02T04:05:41;8.83;;;2.90;;
3922;SDS011;1976;51.694;6.256;2022-08-02T04:08:06;9.73;;;3.63;;
3922;SDS011;1976;51.694;6.256;2022-08-02T04:10:32;8.67;;;3.20;;
3922;SDS011;1976;51.694;6.256;2022-08-02T04:13:18;12.53;;;3.03;;
3922;SDS011;1976;51.694;6.256;2022-08-02T04:15:45;3.17;;;2.87;;
3922;SDS011;1976;51.694;6.256;2022-08-02T04:18:13;10.23;;;2.70;;
3922;SDS011;1976;51.694;6.256;2022-08-02T04:20:40;7.90;;;2.67;;
3922;SDS011;1976;51.694;6.256;2022-08-02T04:23:07;8.87;;;3.30;;
3922;SDS011;1976;51.694;6.256;2022-08-02T04:25:35;11.63;;;2.80;;
3922;SDS011;1976;51.694;6.256;2022-08-02T04:28:03;3.90;;;2.40;;
3922;SDS011;1976;51.694;6.256;2022-08-02T04:30:29;8.13;;;3.03;;
3922;SDS011;1976;51.694;6.256;2022-08-02T04:32:56;15.87;;;3.17;;
3922;SDS011;1976;51.694;6.256;2022-08-02T04:35:23;14.37;;;3.43;;
3922;SDS011;1976;51.694;6.256;2022-08-02T04:37:49;14.60;;;2.90;;
3922;SDS011;1976;51.694;6.256;2022-08-02T04:40:16;4.33;;;3.00;;
3922;SDS011;1976;51.694;6.256;2022-08-02T04:42:42;9.33;;;2.80;;
3922;SDS011;1976;51.694;6.256;2022-08-02T04:45:08;9.30;;;3.50;;
3922;SDS011;1976;51.694;6.256;2022-08-02T04:47:34;4.90;;;3.47;;
3922;SDS011;1976;51.694;6.256;2022-08-02T04:50:00;3.97;;;2.60;;
3922;SDS011;1976;51.694;6.256;2022-08-02T04:52:26;10.20;;;3.07;;
3922;SDS011;1976;51.694;6.256;2022-08-02T04:54:52;5.20;;;2.57;;
3922;SDS011;1976;51.694;6.256;2022-08-02T04:57:18;8.17;;;2.60;;
3922;SDS011;1976;51.694;6.256;2022-08-02T05:00:03;16.43;;;3.40;;
3922;SDS011;1976;51.694;6.256;2022-08-02T05:02:32;6.70;;;2.77;;
3922;SDS011;1976;51.694;6.256;2022-08-02T05:04:58;11.97;;;3.47;;
3922;SDS011;1976;51.694;6.256;2022-08-02T05:07:24;11.27;;;4.20;;
3922;SDS011;1976;51.694;6.256;2022-08-02T05:09:50;7.00;;;3.80;;
3922;SDS011;1976;51.694;6.256;2022-08-02T05:12:16;7.33;;;4.63;;
3922;SDS011;1976;51.694;6.256;2022-08-02T05:14:41;8.50;;;3.87;;
3922;SDS011;1976;51.694;6.256;2022-08-02T05:17:07;11.37;;;4.50;;
3922;SDS011;1976;51.694;6.256;2022-08-02T05:19:32;6.60;;;4.20;;
3922;SDS011;1976;51.694;6.256;2022-08-02T05:21:58;12.50;;;4.53;;
3922;SDS011;1976;51.694;6.256;2022-08-02T05:24:24;9.77;;;4.93;;
3922;SDS011;1976;51.694;6.256;2022-08-02T05:26:49;14.10;;;4.77;;
3922;SDS011;1976;51.694;6.256;2022-08-02T05:29:15;7.67;;;4.40;;
3922;SDS011;1976;51.694;6.256;2022-08-02T05:31:41;17.13;;;5.43;;
3922;SDS011;1976;51.694;6.256;2022-08-02T05:34:07;7.77;;;4.60;;
3922;SDS011;1976;51.694;6.256;2022-08-02T05:36:33;8.13;;;5.23;;
3922;SDS011;1976;51.694;6.256;2022-08-02T05:38:58;11.23;;;5.23;;
3922;SDS011;1976;51.694;6.256;2022-08-02T05:41:24;6.80;;;4.53;;
3922;SDS011;1976;51.694;6.256;2022-08-02T05:43:49;11.70;;;5.07;;
3922;SDS011;1976;51.694;6.256;2022-08-02T05:46:15;6.67;;;5.50;;
3922;SDS011;1976;51.694;6.256;2022-08-02T05:48:41;5.50;;;4.57;;
3922;SDS011;1976;51.694;6.256;2022-08-02T05:51:15;10.00;;;5.30;;
3922;SDS011;1976;51.694;6.256;2022-08-02T05:53:59;10.73;;;5.17;;
3922;SDS011;1976;51.694;6.256;2022-08-02T05:56:41;7.43;;;4.33;;
3922;SDS011;1976;51.694;6.256;2022-08-02T05:59:39;6.57;;;4.47;;
3922;SDS011;1976;51.694;6.256;2022-08-02T06:05:25;10.40;;;5.20;;
3922;SDS011;1976;51.694;6.256;2022-08-02T06:07:52;16.50;;;6.07;;
3922;SDS011;1976;51.694;6.256;2022-08-02T06:10:22;24.50;;;5.77;;
3922;SDS011;1976;51.694;6.256;2022-08-02T06:12:53;21.50;;;6.27;;
3922;SDS011;1976;51.694;6.256;2022-08-02T06:15:30;10.53;;;5.77;;
3922;SDS011;1976;51.694;6.256;2022-08-02T06:17:56;10.60;;;6.17;;
3922;SDS011;1976;51.694;6.256;2022-08-02T06:20:23;13.97;;;5.67;;
3922;SDS011;1976;51.694;6.256;2022-08-02T06:22:51;10.60;;;5.47;;
3922;SDS011;1976;51.694;6.256;2022-08-02T06:25:19;14.03;;;3.93;;
3922;SDS011;1976;51.694;6.256;2022-08-02T06:27:46;13.40;;;4.63;;
3922;SDS011;1976;51.694;6.256;2022-08-02T06:30:14;10.43;;;4.57;;
3922;SDS011;1976;51.694;6.256;2022-08-02T06:32:40;7.97;;;4.77;;
3922;SDS011;1976;51.694;6.256;2022-08-02T06:35:08;13.33;;;5.47;;
3922;SDS011;1976;51.694;6.256;2022-08-02T06:37:37;15.33;;;5.07;;
3922;SDS011;1976;51.694;6.256;2022-08-02T06:40:11;13.80;;;5.40;;
3922;SDS011;1976;51.694;6.256;2022-08-02T06:45:33;6.20;;;5.10;;
3922;SDS011;1976;51.694;6.256;2022-08-02T06:47:59;12.27;;;5.20;;
3922;SDS011;1976;51.694;6.256;2022-08-02T06:50:25;9.57;;;4.87;;
3922;SDS011;1976;51.694;6.256;2022-08-02T06:52:51;8.60;;;5.20;;
3922;SDS011;1976;51.694;6.256;2022-08-02T06:55:17;4.47;;;3.40;;
3922;SDS011;1976;51.694;6.256;2022-08-02T06:57:42;6.97;;;5.03;;
3922;SDS011;1976;51.694;6.256;2022-08-02T07:00:08;12.00;;;5.10;;
3922;SDS011;1976;51.694;6.256;2022-08-02T07:02:35;13.20;;;4.30;;
3922;SDS011;1976;51.694;6.256;2022-08-02T07:05:01;10.20;;;5.33;;
3922;SDS011;1976;51.694;6.256;2022-08-02T07:07:27;9.83;;;5.40;;
3922;SDS011;1976;51.694;6.256;2022-08-02T07:09:53;9.97;;;5.00;;
3922;SDS011;1976;51.694;6.256;2022-08-02T07:12:19;12.27;;;5.10;;
3922;SDS011;1976;51.694;6.256;2022-08-02T07:14:45;16.83;;;5.80;;
3922;SDS011;1976;51.694;6.256;2022-08-02T07:17:11;14.43;;;5.87;;
3922;SDS011;1976;51.694;6.256;2022-08-02T07:19:37;9.23;;;5.70;;
3922;SDS011;1976;51.694;6.256;2022-08-02T07:22:03;13.07;;;5.00;;
3922;SDS011;1976;51.694;6.256;2022-08-02T07:24:29;11.53;;;5.63;;
3922;SDS011;1976;51.694;6.256;2022-08-02T07:26:54;6.57;;;4.17;;
3922;SDS011;1976;51.694;6.256;2022-08-02T07:29:21;11.50;;;3.80;;
3922;SDS011;1976;51.694;6.256;2022-08-02T07:31:46;4.60;;;3.23;;
3922;SDS011;1976;51.694;6.256;2022-08-02T07:34:12;8.40;;;4.20;;
3922;SDS011;1976;51.694;6.256;2022-08-02T07:36:37;5.33;;;4.10;;
3922;SDS011;1976;51.694;6.256;2022-08-02T07:39:03;5.27;;;3.67;;
3922;SDS011;1976;51.694;6.256;2022-08-02T07:41:29;11.63;;;4.87;;
3922;SDS011;1976;51.694;6.256;2022-08-02T07:43:55;13.80;;;4.80;;
3922;SDS011;1976;51.694;6.256;2022-08-02T07:46:21;6.27;;;2.63;;
3922;SDS011;1976;51.694;6.256;2022-08-02T07:48:46;8.70;;;4.53;;
3922;SDS011;1976;51.694;6.256;2022-08-02T07:51:13;7.60;;;4.50;;
3922;SDS011;1976;51.694;6.256;2022-08-02T07:53:39;9.97;;;5.47;;
3922;SDS011;1976;51.694;6.256;2022-08-02T07:56:05;9.53;;;4.20;;
3922;SDS011;1976;51.694;6.256;2022-08-02T07:58:30;9.57;;;4.17;;
3922;SDS011;1976;51.694;6.256;2022-08-02T08:00:56;2.73;;;2.50;;
3922;SDS011;1976;51.694;6.256;2022-08-02T08:03:22;2.40;;;2.17;;
3922;SDS011;1976;51.694;6.256;2022-08-02T08:05:48;5.17;;;4.13;;
3922;SDS011;1976;51.694;6.256;2022-08-02T08:08:13;5.70;;;3.87;;
3922;SDS011;1976;51.694;6.256;2022-08-02T08:10:39;2.50;;;2.10;;
3922;SDS011;1976;51.694;6.256;2022-08-02T08:13:05;23.73;;;4.83;;
3922;SDS011;1976;51.694;6.256;2022-08-02T08:15:31;8.57;;;3.97;;
3922;SDS011;1976;51.694;6.256;2022-08-02T08:17:56;5.50;;;2.63;;
3922;SDS011;1976;51.694;6.256;2022-08-02T08:20:22;11.10;;;3.93;;
3922;SDS011;1976;51.694;6.256;2022-08-02T08:22:48;9.27;;;3.77;;
3922;SDS011;1976;51.694;6.256;2022-08-02T08:25:14;9.40;;;2.80;;
3922;SDS011;1976;51.694;6.256;2022-08-02T08:27:47;3.53;;;3.23;;
3922;SDS011;1976;51.694;6.256;2022-08-02T08:30:14;3.67;;;3.07;;
3922;SDS011;1976;51.694;6.256;2022-08-02T08:32:40;7.60;;;3.20;;
3922;SDS011;1976;51.694;6.256;2022-08-02T08:35:06;17.60;;;3.73;;
3922;SDS011;1976;51.694;6.256;2022-08-02T08:37:33;8.17;;;3.43;;
3922;SDS011;1976;51.694;6.256;2022-08-02T08:39:59;9.63;;;3.80;;
3922;SDS011;1976;51.694;6.256;2022-08-02T08:42:25;6.47;;;3.77;;
3922;SDS011;1976;51.694;6.256;2022-08-02T08:44:51;2.53;;;2.27;;
3922;SDS011;1976;51.694;6.256;2022-08-02T08:47:18;3.67;;;2.67;;
3922;SDS011;1976;51.694;6.256;2022-08-02T08:49:44;5.13;;;4.00;;
3922;SDS011;1976;51.694;6.256;2022-08-02T08:52:13;5.67;;;2.53;;
3922;SDS011;1976;51.694;6.256;2022-08-02T08:54:40;5.33;;;2.73;;
3922;SDS011;1976;51.694;6.256;2022-08-02T08:57:08;4.90;;;3.90;;
3922;SDS011;1976;51.694;6.256;2022-08-02T08:59:34;4.63;;;3.03;;
3922;SDS011;1976;51.694;6.256;2022-08-02T09:02:00;6.80;;;4.13;;
3922;SDS011;1976;51.694;6.256;2022-08-02T09:04:26;12.37;;;5.13;;
3922;SDS011;1976;51.694;6.256;2022-08-02T09:06:52;9.03;;;3.90;;
3922;SDS011;1976;51.694;6.256;2022-08-02T09:09:18;7.50;;;4.87;;
3922;SDS011;1976;51.694;6.256;2022-08-02T09:11:44;9.00;;;4.50;;
3922;SDS011;1976;51.694;6.256;2022-08-02T09:14:10;7.83;;;4.10;;
3922;SDS011;1976;51.694;6.256;2022-08-02T09:16:37;9.10;;;4.30;;
3922;SDS011;1976;51.694;6.256;2022-08-02T09:21:42;11.87;;;3.47;;
3922;SDS011;1976;51.694;6.256;2022-08-02T09:24:15;10.80;;;3.80;;
3922;SDS011;1976;51.694;6.256;2022-08-02T09:26:42;1.80;;;1.70;;
3922;SDS011;1976;51.694;6.256;2022-08-02T09:29:08;4.90;;;3.33;;
3922;SDS011;1976;51.694;6.256;2022-08-02T09:31:33;5.00;;;3.60;;
3922;SDS011;1976;51.694;6.256;2022-08-02T09:33:59;4.37;;;3.60;;
3922;SDS011;1976;51.694;6.256;2022-08-02T09:36:25;9.20;;;3.33;;
3922;SDS011;1976;51.694;6.256;2022-08-02T09:39:02;9.23;;;3.70;;
3922;SDS011;1976;51.694;6.256;2022-08-02T09:41:31;4.67;;;3.17;;
3922;SDS011;1976;51.694;6.256;2022-08-02T09:43:59;6.83;;;3.60;;
3922;SDS011;1976;51.694;6.256;2022-08-02T09:46:27;2.50;;;2.30;;
3922;SDS011;1976;51.694;6.256;2022-08-02T09:51:23;3.47;;;3.17;;
3922;SDS011;1976;51.694;6.256;2022-08-02T09:53:52;18.03;;;2.70;;
3922;SDS011;1976;51.694;6.256;2022-08-02T09:56:20;6.20;;;2.40;;
3922;SDS011;1976;51.694;6.256;2022-08-02T09:58:46;3.23;;;2.90;;
3922;SDS011;1976;51.694;6.256;2022-08-02T10:01:14;2.67;;;2.20;;
3922;SDS011;1976;51.694;6.256;2022-08-02T10:03:53;3.17;;;2.40;;
3922;SDS011;1976;51.694;6.256;2022-08-02T10:06:23;3.30;;;2.67;;
3922;SDS011;1976;51.694;6.256;2022-08-02T10:08:50;8.57;;;1.80;;
3922;SDS011;1976;51.694;6.256;2022-08-02T10:11:17;3.77;;;2.00;;
3922;SDS011;1976;51.694;6.256;2022-08-02T10:13:45;2.90;;;2.50;;
3922;SDS011;1976;51.694;6.256;2022-08-02T10:16:12;2.40;;;1.70;;
3922;SDS011;1976;51.694;6.256;2022-08-02T10:18:40;4.40;;;2.77;;
3922;SDS011;1976;51.694;6.256;2022-08-02T10:21:12;2.50;;;2.30;;
3922;SDS011;1976;51.694;6.256;2022-08-02T10:24:05;4.23;;;2.07;;
3922;SDS011;1976;51.694;6.256;2022-08-02T10:26:32;2.80;;;1.87;;
3922;SDS011;1976;51.694;6.256;2022-08-02T10:28:58;2.37;;;1.70;;
3922;SDS011;1976;51.694;6.256;2022-08-02T10:31:26;1.57;;;1.47;;
3922;SDS011;1976;51.694;6.256;2022-08-02T10:33:57;3.00;;;1.80;;
3922;SDS011;1976;51.694;6.256;2022-08-02T10:36:25;2.40;;;1.90;;
3922;SDS011;1976;51.694;6.256;2022-08-02T10:38:55;2.90;;;1.80;;
3922;SDS011;1976;51.694;6.256;2022-08-02T10:44:28;6.77;;;2.60;;
3922;SDS011;1976;51.694;6.256;2022-08-02T10:49:57;4.50;;;1.50;;
3922;SDS011;1976;51.694;6.256;2022-08-02T10:52:24;1.60;;;1.40;;
3922;SDS011;1976;51.694;6.256;2022-08-02T10:59:54;1.50;;;1.40;;
3922;SDS011;1976;51.694;6.256;2022-08-02T11:02:37;2.03;;;1.50;;
3922;SDS011;1976;51.694;6.256;2022-08-02T11:05:08;1.10;;;0.80;;
3922;SDS011;1976;51.694;6.256;2022-08-02T11:07:38;2.70;;;1.37;;
3922;SDS011;1976;51.694;6.256;2022-08-02T11:24:36;2.20;;;1.33;;
3922;SDS011;1976;51.694;6.256;2022-08-02T11:27:07;2.07;;;1.87;;
3922;SDS011;1976;51.694;6.256;2022-08-02T11:29:43;13.13;;;2.07;;
3922;SDS011;1976;51.694;6.256;2022-08-02T11:32:20;3.70;;;1.63;;
3922;SDS011;1976;51.694;6.256;2022-08-02T11:34:47;1.57;;;1.40;;
3922;SDS011;1976;51.694;6.256;2022-08-02T11:39:56;3.00;;;1.87;;
3922;SDS011;1976;51.694;6.256;2022-08-02T11:42:32;1.63;;;1.53;;
3922;SDS011;1976;51.694;6.256;2022-08-02T11:44:59;2.07;;;1.83;;
3922;SDS011;1976;51.694;6.256;2022-08-02T11:47:24;1.20;;;1.10;;
3922;SDS011;1976;51.694;6.256;2022-08-02T11:49:50;1.63;;;1.53;;
3922;SDS011;1976;51.694;6.256;2022-08-02T11:52:16;3.20;;;1.43;;
3922;SDS011;1976;51.694;6.256;2022-08-02T11:54:42;1.57;;;1.30;;
3922;SDS011;1976;51.694;6.256;2022-08-02T11:59:41;1.77;;;1.30;;
3922;SDS011;1976;51.694;6.256;2022-08-02T12:02:08;1.57;;;1.30;;
3922;SDS011;1976;51.694;6.256;2022-08-02T12:04:35;1.80;;;1.40;;
3922;SDS011;1976;51.694;6.256;2022-08-02T12:07:02;1.10;;;1.10;;
3922;SDS011;1976;51.694;6.256;2022-08-02T12:09:29;1.50;;;1.37;;
3922;SDS011;1976;51.694;6.256;2022-08-02T12:11:56;1.30;;;1.20;;
3922;SDS011;1976;51.694;6.256;2022-08-02T12:14:23;1.27;;;1.20;;
3922;SDS011;1976;51.694;6.256;2022-08-02T12:16:50;1.70;;;1.40;;
3922;SDS011;1976;51.694;6.256;2022-08-02T12:19:36;1.40;;;1.30;;
3922;SDS011;1976;51.694;6.256;2022-08-02T12:22:16;1.03;;;1.03;;
3922;SDS011;1976;51.694;6.256;2022-08-02T12:24:47;1.53;;;1.13;;
3922;SDS011;1976;51.694;6.256;2022-08-02T12:27:27;0.80;;;0.80;;
3922;SDS011;1976;51.694;6.256;2022-08-02T12:29:58;0.90;;;0.90;;
3922;SDS011;1976;51.694;6.256;2022-08-02T12:32:25;1.37;;;1.17;;
3922;SDS011;1976;51.694;6.256;2022-08-02T12:37:46;4.40;;;1.40;;
3922;SDS011;1976;51.694;6.256;2022-08-02T12:40:21;1.67;;;1.03;;
3922;SDS011;1976;51.694;6.256;2022-08-02T12:43:00;1.53;;;1.20;;
3922;SDS011;1976;51.694;6.256;2022-08-02T12:45:29;1.20;;;1.10;;
3922;SDS011;1976;51.694;6.256;2022-08-02T12:47:57;1.23;;;1.13;;
3922;SDS011;1976;51.694;6.256;2022-08-02T12:50:25;2.70;;;1.37;;
3922;SDS011;1976;51.694;6.256;2022-08-02T12:55:57;10.63;;;1.17;;
3922;SDS011;1976;51.694;6.256;2022-08-02T12:58:22;1.23;;;1.13;;
3922;SDS011;1976;51.694;6.256;2022-08-02T13:00:55;4.03;;;1.33;;
3922;SDS011;1976;51.694;6.256;2022-08-02T13:03:22;1.97;;;1.50;;
3922;SDS011;1976;51.694;6.256;2022-08-02T13:05:49;2.00;;;1.20;;
3922;SDS011;1976;51.694;6.256;2022-08-02T13:08:15;18.97;;;2.77;;
3922;SDS011;1976;51.694;6.256;2022-08-02T13:10:41;1.10;;;1.10;;
3922;SDS011;1976;51.694;6.256;2022-08-02T13:13:07;1.57;;;1.20;;
3922;SDS011;1976;51.694;6.256;2022-08-02T13:15:33;1.63;;;1.23;;
3922;SDS011;1976;51.694;6.256;2022-08-02T13:17:58;0.93;;;0.93;;
3922;SDS011;1976;51.694;6.256;2022-08-02T13:20:25;1.33;;;1.03;;
3922;SDS011;1976;51.694;6.256;2022-08-02T13:22:52;1.20;;;1.10;;
3922;SDS011;1976;51.694;6.256;2022-08-02T13:25:18;1.30;;;1.20;;
3922;SDS011;1976;51.694;6.256;2022-08-02T13:27:46;0.70;;;0.70;;
3922;SDS011;1976;51.694;6.256;2022-08-02T13:30:13;2.03;;;1.60;;
3922;SDS011;1976;51.694;6.256;2022-08-02T13:32:39;1.60;;;0.87;;
3922;SDS011;1976;51.694;6.256;2022-08-02T13:35:04;0.87;;;0.87;;
3922;SDS011;1976;51.694;6.256;2022-08-02T13:37:30;5.20;;;1.40;;
3922;SDS011;1976;51.694;6.256;2022-08-02T13:39:56;1.83;;;1.30;;
3922;SDS011;1976;51.694;6.256;2022-08-02T13:42:22;1.10;;;1.07;;
3922;SDS011;1976;51.694;6.256;2022-08-02T13:44:48;0.97;;;0.97;;
3922;SDS011;1976;51.694;6.256;2022-08-02T13:47:13;4.83;;;1.30;;
3922;SDS011;1976;51.694;6.256;2022-08-02T13:49:39;1.83;;;1.00;;
3922;SDS011;1976;51.694;6.256;2022-08-02T13:52:05;1.23;;;0.97;;
3922;SDS011;1976;51.694;6.256;2022-08-02T13:54:32;1.13;;;1.10;;
3922;SDS011;1976;51.694;6.256;2022-08-02T13:56:57;0.83;;;0.83;;
3922;SDS011;1976;51.694;6.256;2022-08-02T13:59:24;5.70;;;0.80;;
3922;SDS011;1976;51.694;6.256;2022-08-02T14:01:50;1.40;;;1.00;;
3922;SDS011;1976;51.694;6.256;2022-08-02T14:04:16;1.97;;;1.20;;
3922;SDS011;1976;51.694;6.256;2022-08-02T14:06:41;0.90;;;0.90;;
3922;SDS011;1976;51.694;6.256;2022-08-02T14:09:07;1.47;;;1.10;;
3922;SDS011;1976;51.694;6.256;2022-08-02T14:11:32;1.67;;;1.17;;
3922;SDS011;1976;51.694;6.256;2022-08-02T14:13:58;1.13;;;0.93;;
3922;SDS011;1976;51.694;6.256;2022-08-02T14:16:24;10.30;;;1.17;;
3922;SDS011;1976;51.694;6.256;2022-08-02T14:18:49;8.63;;;1.30;;
3922;SDS011;1976;51.694;6.256;2022-08-02T14:21:15;1.20;;;0.90;;
3922;SDS011;1976;51.694;6.256;2022-08-02T14:23:40;1.90;;;0.87;;
3922;SDS011;1976;51.694;6.256;2022-08-02T14:26:06;0.93;;;0.90;;
3922;SDS011;1976;51.694;6.256;2022-08-02T14:28:34;0.80;;;0.77;;
3922;SDS011;1976;51.694;6.256;2022-08-02T14:31:00;6.23;;;1.30;;
3922;SDS011;1976;51.694;6.256;2022-08-02T14:33:26;1.50;;;0.90;;
3922;SDS011;1976;51.694;6.256;2022-08-02T14:35:51;2.07;;;1.17;;
3922;SDS011;1976;51.694;6.256;2022-08-02T14:38:17;1.10;;;1.00;;
3922;SDS011;1976;51.694;6.256;2022-08-02T14:40:44;4.10;;;1.10;;
3922;SDS011;1976;51.694;6.256;2022-08-02T14:43:10;3.07;;;1.20;;
3922;SDS011;1976;51.694;6.256;2022-08-02T14:45:56;1.00;;;0.90;;
3922;SDS011;1976;51.694;6.256;2022-08-02T14:48:22;1.20;;;0.97;;
3922;SDS011;1976;51.694;6.256;2022-08-02T14:50:47;1.20;;;1.10;;
3922;SDS011;1976;51.694;6.256;2022-08-02T14:53:13;0.93;;;0.83;;
3922;SDS011;1976;51.694;6.256;2022-08-02T14:55:39;1.90;;;1.07;;
3922;SDS011;1976;51.694;6.256;2022-08-02T14:58:05;4.97;;;1.27;;
3922;SDS011;1976;51.694;6.256;2022-08-02T15:00:31;0.90;;;0.80;;
3922;SDS011;1976;51.694;6.256;2022-08-02T15:02:57;1.00;;;1.00;;
3922;SDS011;1976;51.694;6.256;2022-08-02T15:05:22;6.97;;;1.60;;
3922;SDS011;1976;51.694;6.256;2022-08-02T15:07:48;1.80;;;0.97;;
3922;SDS011;1976;51.694;6.256;2022-08-02T15:10:14;1.40;;;1.13;;
3922;SDS011;1976;51.694;6.256;2022-08-02T15:12:39;1.10;;;1.00;;
3922;SDS011;1976;51.694;6.256;2022-08-02T15:15:05;4.40;;;1.10;;
3922;SDS011;1976;51.694;6.256;2022-08-02T15:17:31;2.80;;;1.10;;
3922;SDS011;1976;51.694;6.256;2022-08-02T15:19:57;1.57;;;1.20;;
3922;SDS011;1976;51.694;6.256;2022-08-02T15:22:22;0.97;;;0.83;;
3922;SDS011;1976;51.694;6.256;2022-08-02T15:24:48;1.90;;;1.20;;
3922;SDS011;1976;51.694;6.256;2022-08-02T15:27:15;1.60;;;1.40;;
3922;SDS011;1976;51.694;6.256;2022-08-02T15:29:41;4.40;;;1.23;;
3922;SDS011;1976;51.694;6.256;2022-08-02T15:32:08;2.17;;;1.30;;
3922;SDS011;1976;51.694;6.256;2022-08-02T15:34:34;1.17;;;1.00;;
3922;SDS011;1976;51.694;6.256;2022-08-02T15:36:59;2.60;;;1.17;;
3922;SDS011;1976;51.694;6.256;2022-08-02T15:39:25;3.43;;;1.03;;
3922;SDS011;1976;51.694;6.256;2022-08-02T15:41:51;1.67;;;1.30;;
3922;SDS011;1976;51.694;6.256;2022-08-02T15:44:17;1.53;;;1.10;;
3922;SDS011;1976;51.694;6.256;2022-08-02T15:46:42;6.77;;;2.83;;
3922;SDS011;1976;51.694;6.256;2022-08-02T15:49:08;2.17;;;1.20;;
3922;SDS011;1976;51.694;6.256;2022-08-02T15:51:33;4.90;;;1.10;;
3922;SDS011;1976;51.694;6.256;2022-08-02T15:53:59;2.17;;;1.20;;
3922;SDS011;1976;51.694;6.256;2022-08-02T15:56:25;0.80;;;0.80;;
3922;SDS011;1976;51.694;6.256;2022-08-02T15:58:51;1.10;;;1.00;;
3922;SDS011;1976;51.694;6.256;2022-08-02T16:01:16;1.33;;;0.90;;
3922;SDS011;1976;51.694;6.256;2022-08-02T16:03:42;2.50;;;1.17;;
3922;SDS011;1976;51.694;6.256;2022-08-02T16:06:08;0.97;;;0.87;;
3922;SDS011;1976;51.694;6.256;2022-08-02T16:08:34;0.90;;;0.90;;
3922;SDS011;1976;51.694;6.256;2022-08-02T16:11:00;4.30;;;1.30;;
3922;SDS011;1976;51.694;6.256;2022-08-02T16:13:26;1.57;;;0.93;;
3922;SDS011;1976;51.694;6.256;2022-08-02T16:16:10;3.63;;;1.50;;